createdAt,value
2023-04-28T00:00:19.969Z,7.00
2023-04-28T00:02:48.897Z,8.20
2023-04-28T00:05:16.165Z,7.55
2023-04-28T00:07:43.083Z,6.75
2023-04-28T00:10:10.317Z,6.13
2023-04-28T00:12:37.382Z,6.28
2023-04-28T00:15:04.576Z,6.88
2023-04-28T00:17:31.675Z,7.55
2023-04-28T00:19:58.960Z,7.38
2023-04-28T00:22:25.855Z,7.90
2023-04-28T00:24:52.735Z,7.63
2023-04-28T00:27:20.711Z,7.05
2023-04-28T00:29:47.632Z,6.32
2023-04-28T00:32:14.600Z,5.78
2023-04-28T00:34:41.776Z,6.80
2023-04-28T00:37:08.660Z,8.35
2023-04-28T00:39:35.532Z,5.57
2023-04-28T00:42:04.308Z,6.10
2023-04-28T00:44:31.206Z,6.15
2023-04-28T00:46:59.463Z,5.45
2023-04-28T00:49:27.085Z,4.95
2023-04-28T00:51:53.981Z,5.20
2023-04-28T00:54:21.078Z,9.07
2023-04-28T00:56:48.950Z,7.60
2023-04-28T00:59:16.136Z,7.88
2023-04-28T01:01:43.885Z,5.72
2023-04-28T01:04:11.006Z,5.38
2023-04-28T01:06:38.946Z,7.63
2023-04-28T01:09:07.553Z,5.45
2023-04-28T01:11:34.550Z,9.48
2023-04-28T01:14:01.682Z,4.97
2023-04-28T01:16:28.734Z,6.43
2023-04-28T01:18:55.908Z,7.43
2023-04-28T01:21:32.687Z,5.97
2023-04-28T01:24:00.692Z,5.70
2023-04-28T01:26:27.792Z,7.70
2023-04-28T01:28:54.669Z,5.57
2023-04-28T01:31:21.669Z,5.95
2023-04-28T01:33:48.604Z,7.22
2023-04-28T01:36:15.468Z,4.90
2023-04-28T01:38:42.473Z,5.65
2023-04-28T01:41:09.319Z,5.65
2023-04-28T01:43:36.215Z,6.53
2023-04-28T01:46:03.423Z,4.45
2023-04-28T01:48:30.538Z,4.70
2023-04-28T01:50:57.474Z,5.28
2023-04-28T01:53:24.370Z,6.80
2023-04-28T01:55:51.774Z,6.47
2023-04-28T01:58:18.673Z,8.07
2023-04-28T02:00:45.841Z,5.65
2023-04-28T02:03:12.874Z,9.40
2023-04-28T02:05:39.882Z,8.65
2023-04-28T02:08:06.773Z,5.75
2023-04-28T02:10:33.614Z,6.05
2023-04-28T02:13:00.495Z,6.43
2023-04-28T02:15:27.408Z,8.05
2023-04-28T02:17:54.327Z,5.60
2023-04-28T02:20:21.198Z,6.82
2023-04-28T02:22:48.782Z,6.30
2023-04-28T02:25:15.692Z,8.20
2023-04-28T02:27:42.777Z,7.95
2023-04-28T02:30:09.953Z,5.55
2023-04-28T02:32:36.977Z,5.43
2023-04-28T02:35:04.222Z,7.40
2023-04-28T02:37:31.272Z,5.35
2023-04-28T02:39:58.293Z,7.80
2023-04-28T02:42:25.127Z,5.80
2023-04-28T02:44:52.096Z,7.32
2023-04-28T02:47:18.967Z,6.00
2023-04-28T02:49:45.924Z,5.55
2023-04-28T02:52:12.909Z,6.22
2023-04-28T02:54:39.893Z,4.65
2023-04-28T02:57:06.973Z,6.57
2023-04-28T02:59:33.984Z,5.28
2023-04-28T03:02:00.810Z,5.78
2023-04-28T03:04:28.142Z,6.13
2023-04-28T03:06:55.077Z,6.70
2023-04-28T03:09:21.954Z,6.95
2023-04-28T03:11:48.826Z,6.68
2023-04-28T03:14:15.940Z,5.53
2023-04-28T03:16:43.157Z,7.18
2023-04-28T03:19:10.118Z,7.32
2023-04-28T03:21:37.038Z,6.20
2023-04-28T03:24:12.902Z,8.10
2023-04-28T03:26:39.882Z,6.25
2023-04-28T03:29:07.009Z,7.13
2023-04-28T03:31:33.889Z,7.20
2023-04-28T03:34:00.864Z,6.28
2023-04-28T03:36:27.812Z,6.95
2023-04-28T03:38:54.718Z,6.57
2023-04-28T03:41:21.739Z,7.47
2023-04-28T03:43:48.663Z,5.45
2023-04-28T03:46:15.595Z,6.90
2023-04-28T03:48:42.634Z,5.30
2023-04-28T03:51:09.478Z,6.05
2023-04-28T03:53:36.334Z,4.97
2023-04-28T03:56:03.312Z,5.93
2023-04-28T03:58:30.150Z,5.68
2023-04-28T04:00:57.114Z,7.07
2023-04-28T04:03:26.645Z,6.28
2023-04-28T04:05:55.173Z,4.97
2023-04-28T04:08:22.180Z,7.80
2023-04-28T04:10:49.070Z,7.18
2023-04-28T04:13:15.936Z,5.53
2023-04-28T04:15:42.878Z,8.80
2023-04-28T04:18:09.999Z,6.18
2023-04-28T04:20:36.962Z,8.20
2023-04-28T04:23:03.846Z,7.40
2023-04-28T04:25:32.552Z,6.80
2023-04-28T04:28:00.032Z,5.70
2023-04-28T04:30:26.918Z,5.25
2023-04-28T04:32:54.103Z,7.05
2023-04-28T04:35:21.116Z,6.13
2023-04-28T04:37:48.101Z,7.55
2023-04-28T04:40:15.001Z,6.38
2023-04-28T04:42:41.849Z,7.03
2023-04-28T04:45:09.137Z,6.63
2023-04-28T04:47:36.151Z,7.85
2023-04-28T04:50:03.067Z,5.97
2023-04-28T04:52:29.918Z,5.63
2023-04-28T04:54:57.045Z,6.43
2023-04-28T04:57:23.943Z,7.00
2023-04-28T04:59:50.871Z,6.28
2023-04-28T05:02:17.976Z,6.13
2023-04-28T05:04:44.984Z,7.70
2023-04-28T05:07:11.966Z,5.65
2023-04-28T05:09:38.839Z,7.93
2023-04-28T05:12:05.982Z,6.03
2023-04-28T05:14:32.910Z,10.20
2023-04-28T05:17:00.060Z,7.15
2023-04-28T05:19:27.047Z,6.90
2023-04-28T05:21:54.944Z,6.90
2023-04-28T05:24:23.940Z,8.50
2023-04-28T05:26:52.039Z,6.15
2023-04-28T05:29:18.892Z,6.03
2023-04-28T05:31:46.127Z,5.38
2023-04-28T05:34:13.111Z,5.25
2023-04-28T05:36:40.071Z,8.15
2023-04-28T05:39:07.050Z,6.53
2023-04-28T05:41:36.399Z,10.30
2023-04-28T05:44:03.553Z,11.15
2023-04-28T05:46:31.355Z,18.55
2023-04-28T05:48:58.380Z,15.63
2023-04-28T05:51:25.281Z,18.92
2023-04-28T05:53:52.172Z,18.52
2023-04-28T05:56:19.341Z,15.60
2023-04-28T05:58:47.287Z,10.27
2023-04-28T06:01:14.482Z,13.00
2023-04-28T06:03:42.189Z,12.98
2023-04-28T06:06:13.122Z,12.65
2023-04-28T06:08:40.163Z,11.88
2023-04-28T06:11:07.156Z,13.27
2023-04-28T06:13:34.037Z,13.88
2023-04-28T06:16:01.063Z,12.23
2023-04-28T06:18:31.711Z,12.52
2023-04-28T06:20:59.001Z,11.43
2023-04-28T06:23:26.250Z,11.90
2023-04-28T06:25:53.235Z,11.52
2023-04-28T06:28:20.222Z,11.27
2023-04-28T06:30:47.197Z,13.95
2023-04-28T06:33:14.097Z,13.65
2023-04-28T06:35:41.208Z,12.95
2023-04-28T06:38:08.392Z,12.70
2023-04-28T06:40:35.254Z,8.80
2023-04-28T06:43:02.695Z,11.70
2023-04-28T06:45:29.605Z,8.90
2023-04-28T06:47:56.951Z,10.82
2023-04-28T06:50:24.942Z,10.10
2023-04-28T06:52:51.962Z,11.43
2023-04-28T06:55:18.969Z,9.30
2023-04-28T06:57:46.190Z,11.23
2023-04-28T07:00:14.074Z,11.27
2023-04-28T07:02:41.443Z,11.18
2023-04-28T07:05:08.940Z,11.18
2023-04-28T07:07:38.875Z,18.35
2023-04-28T07:10:07.114Z,15.43
2023-04-28T07:12:34.023Z,17.23
2023-04-28T07:15:00.907Z,16.80
2023-04-28T07:17:28.875Z,21.73
2023-04-28T07:19:55.944Z,23.48
2023-04-28T07:22:22.902Z,23.63
2023-04-28T07:24:50.008Z,17.25
2023-04-28T07:27:17.264Z,13.25
2023-04-28T07:29:44.200Z,14.60
2023-04-28T07:32:11.211Z,9.95
2023-04-28T07:34:38.208Z,8.68
2023-04-28T07:37:05.755Z,7.63
2023-04-28T07:39:34.930Z,6.68
2023-04-28T07:42:03.378Z,8.93
2023-04-28T07:44:31.429Z,6.20
2023-04-28T07:46:59.808Z,5.80
2023-04-28T07:49:30.458Z,8.07
2023-04-28T07:51:57.538Z,9.55
2023-04-28T07:54:24.800Z,8.55
2023-04-28T07:56:51.756Z,7.65
2023-04-28T07:59:18.696Z,11.30
2023-04-28T08:01:45.669Z,12.82
2023-04-28T08:04:12.710Z,7.40
2023-04-28T08:06:40.298Z,8.18
2023-04-28T08:09:07.351Z,7.32
2023-04-28T08:11:34.920Z,5.25
2023-04-28T08:14:03.556Z,8.02
2023-04-28T08:16:32.085Z,10.20
2023-04-28T08:19:00.528Z,7.78
2023-04-28T08:21:27.638Z,6.88
2023-04-28T08:23:54.593Z,8.52
2023-04-28T08:26:21.571Z,7.25
2023-04-28T08:28:48.556Z,9.40
2023-04-28T08:31:15.502Z,11.30
2023-04-28T08:33:44.764Z,10.93
2023-04-28T08:36:15.261Z,14.38
2023-04-28T08:38:43.087Z,9.43
2023-04-28T08:41:10.092Z,11.00
2023-04-28T08:43:37.667Z,11.10
2023-04-28T08:46:08.412Z,12.32
2023-04-28T08:48:45.843Z,10.10
2023-04-28T08:51:19.593Z,9.45
2023-04-28T08:56:27.497Z,10.35
2023-04-28T08:58:54.966Z,10.55
2023-04-28T09:01:21.885Z,11.32
2023-04-28T09:03:49.452Z,7.80
2023-04-28T09:06:16.656Z,8.95
2023-04-28T09:08:43.913Z,8.75
2023-04-28T09:11:13.695Z,9.43
2023-04-28T09:13:41.469Z,7.78
2023-04-28T09:16:08.600Z,7.63
2023-04-28T09:18:35.796Z,7.80
2023-04-28T09:21:10.534Z,8.02
2023-04-28T09:23:50.920Z,10.25
2023-04-28T09:26:18.240Z,12.38
2023-04-28T09:28:45.174Z,9.35
2023-04-28T09:31:25.932Z,10.38
2023-04-28T09:33:59.819Z,8.25
2023-04-28T09:36:29.681Z,7.68
2023-04-28T09:38:59.581Z,7.57
2023-04-28T09:41:40.654Z,8.63
2023-04-28T09:44:19.218Z,8.55
2023-04-28T09:46:47.458Z,11.43
2023-04-28T09:49:15.463Z,7.85
2023-04-28T09:51:42.370Z,7.45
2023-04-28T09:54:09.260Z,7.40
2023-04-28T09:56:41.989Z,7.13
2023-04-28T09:59:08.951Z,9.17
2023-04-28T10:01:41.485Z,9.40
2023-04-28T10:04:12.063Z,10.88
2023-04-28T10:06:40.101Z,8.77
2023-04-28T10:09:07.938Z,8.55
2023-04-28T10:11:35.233Z,7.90
2023-04-28T10:14:02.512Z,8.73
2023-04-28T10:16:32.329Z,9.18
2023-04-28T10:18:59.653Z,6.15
2023-04-28T10:21:28.478Z,9.27
2023-04-28T10:24:14.295Z,5.80
2023-04-28T10:27:06.197Z,9.20
2023-04-28T10:29:34.238Z,8.10
2023-04-28T10:32:17.472Z,8.82
2023-04-28T10:34:44.865Z,8.48
2023-04-28T10:37:11.846Z,5.35
2023-04-28T10:39:38.711Z,5.53
2023-04-28T10:42:06.277Z,7.47
2023-04-28T10:44:36.142Z,7.30
2023-04-28T10:47:09.834Z,7.55
2023-04-28T10:49:55.220Z,5.88
2023-04-28T10:52:39.782Z,6.25
2023-04-28T10:55:30.654Z,5.25
2023-04-28T10:58:16.120Z,6.18
2023-04-28T11:00:47.931Z,5.57
2023-04-28T11:03:43.954Z,6.38
2023-04-28T11:06:30.188Z,7.15
2023-04-28T11:08:58.155Z,7.25
2023-04-28T11:11:29.880Z,6.75
2023-04-28T11:14:19.465Z,5.50
2023-04-28T11:17:00.037Z,5.03
2023-04-28T11:19:33.521Z,4.38
2023-04-28T11:22:09.927Z,5.03
2023-04-28T11:24:36.932Z,5.30
2023-04-28T11:27:04.801Z,4.28
2023-04-28T11:29:40.167Z,6.60
2023-04-28T11:32:08.972Z,6.88
2023-04-28T11:34:37.167Z,6.18
2023-04-28T11:37:05.972Z,6.60
2023-04-28T11:39:34.486Z,5.40
2023-04-28T11:42:10.586Z,5.63
2023-04-28T11:44:38.149Z,4.03
2023-04-28T11:47:06.417Z,6.03
2023-04-28T11:49:43.941Z,5.28
2023-04-28T11:52:12.129Z,4.82
2023-04-28T11:54:39.242Z,6.38
2023-04-28T11:57:06.801Z,5.07
2023-04-28T11:59:38.306Z,6.18
2023-04-28T12:02:07.766Z,8.25
2023-04-28T12:04:42.758Z,6.40
2023-04-28T12:07:18.443Z,4.75
2023-04-28T12:10:09.598Z,4.82
2023-04-28T12:12:48.926Z,7.00
2023-04-28T12:15:20.415Z,6.55
2023-04-28T12:17:48.685Z,7.88
2023-04-28T12:20:35.948Z,6.00
2023-04-28T12:23:03.027Z,5.90
2023-04-28T12:25:30.016Z,6.22
2023-04-28T12:28:08.473Z,4.57
2023-04-28T12:30:42.650Z,6.57
2023-04-28T12:33:27.067Z,6.32
2023-04-28T12:35:57.369Z,6.40
2023-04-28T12:38:25.012Z,5.38
2023-04-28T12:40:52.411Z,5.18
2023-04-28T12:43:19.708Z,8.43
2023-04-28T12:45:46.713Z,5.88
2023-04-28T12:48:13.658Z,4.65
2023-04-28T12:50:40.562Z,7.22
2023-04-28T12:53:07.486Z,7.47
2023-04-28T12:55:34.490Z,5.55
2023-04-28T12:58:01.376Z,6.43
2023-04-28T13:00:28.265Z,6.45
2023-04-28T13:02:55.299Z,5.03
2023-04-28T13:05:22.489Z,6.80
2023-04-28T13:07:50.914Z,4.25
2023-04-28T13:10:19.165Z,5.57
2023-04-28T13:12:45.997Z,3.58
2023-04-28T13:15:12.878Z,5.80
2023-04-28T13:17:39.915Z,5.05
2023-04-28T13:20:07.719Z,7.63
2023-04-28T13:22:34.576Z,5.82
2023-04-28T13:25:01.480Z,4.38
2023-04-28T13:27:30.511Z,5.97
2023-04-28T13:29:59.394Z,4.32
2023-04-28T13:32:28.159Z,5.85
2023-04-28T13:34:55.535Z,6.50
2023-04-28T13:37:22.527Z,5.30
2023-04-28T13:39:49.774Z,6.20
2023-04-28T13:42:16.612Z,6.30
2023-04-28T13:44:43.754Z,6.07
2023-04-28T13:47:11.198Z,4.63
2023-04-28T13:49:39.703Z,6.57
2023-04-28T13:52:06.625Z,6.03
2023-04-28T13:54:33.521Z,4.78
2023-04-28T13:57:01.343Z,4.05
2023-04-28T13:59:28.230Z,5.05
2023-04-28T14:01:55.069Z,7.95
2023-04-28T14:04:23.321Z,4.55
2023-04-28T14:06:50.642Z,4.68
2023-04-28T14:09:17.645Z,5.13
2023-04-28T14:11:44.700Z,5.00
2023-04-28T14:14:12.152Z,6.18
2023-04-28T14:16:39.100Z,5.60
2023-04-28T14:19:07.210Z,3.95
2023-04-28T14:21:34.659Z,5.38
2023-04-28T14:24:01.630Z,8.30
2023-04-28T14:26:28.565Z,5.82
2023-04-28T14:28:55.462Z,6.03
2023-04-28T14:31:22.485Z,6.03
2023-04-28T14:33:49.425Z,5.10
2023-04-28T14:36:16.295Z,6.45
2023-04-28T14:38:43.349Z,5.70
2023-04-28T14:41:11.575Z,6.65
2023-04-28T14:43:38.558Z,6.85
2023-04-28T14:46:05.880Z,6.53
2023-04-28T14:48:33.121Z,6.10
2023-04-28T14:51:00.122Z,6.20
2023-04-28T14:53:27.454Z,6.15
2023-04-28T14:55:57.484Z,5.03
2023-04-28T14:58:26.457Z,4.35
2023-04-28T15:00:53.437Z,5.88
2023-04-28T15:03:20.497Z,4.20
2023-04-28T15:05:47.731Z,4.25
2023-04-28T15:08:15.087Z,4.25
2023-04-28T15:10:42.120Z,5.15
2023-04-28T15:13:09.207Z,7.70
2023-04-28T15:15:36.682Z,4.32
2023-04-28T15:18:04.590Z,7.10
2023-04-28T15:20:33.443Z,5.30
2023-04-28T15:23:00.708Z,6.47
2023-04-28T15:25:28.023Z,4.88
2023-04-28T15:27:55.050Z,6.70
2023-04-28T15:30:22.044Z,6.55
2023-04-28T15:32:51.989Z,5.80
2023-04-28T15:35:18.887Z,4.05
2023-04-28T15:37:52.140Z,5.88
2023-04-28T15:40:19.762Z,5.85
2023-04-28T15:42:52.193Z,5.88
2023-04-28T15:45:22.860Z,4.73
2023-04-28T15:47:51.062Z,4.38
2023-04-28T15:50:19.778Z,6.97
2023-04-28T15:52:47.866Z,4.40
2023-04-28T15:55:16.326Z,4.60
2023-04-28T15:57:44.485Z,4.13
2023-04-28T16:00:12.119Z,6.68
2023-04-28T16:02:39.512Z,7.10
2023-04-28T16:05:07.398Z,5.55
2023-04-28T16:07:43.826Z,3.53
2023-04-28T16:10:13.416Z,4.95
2023-04-28T16:12:41.898Z,4.97
2023-04-28T16:15:11.589Z,3.70
2023-04-28T16:17:39.273Z,7.18
2023-04-28T16:20:10.012Z,4.50
2023-04-28T16:22:37.759Z,5.65
2023-04-28T16:25:05.312Z,6.72
2023-04-28T16:27:32.870Z,6.25
2023-04-28T16:30:00.784Z,7.38
2023-04-28T16:32:28.217Z,5.47
2023-04-28T16:34:57.725Z,8.27
2023-04-28T16:37:24.665Z,5.63
2023-04-28T16:39:52.502Z,10.57
2023-04-28T16:42:21.968Z,5.45
2023-04-28T16:44:51.665Z,6.45
2023-04-28T16:47:20.110Z,5.35
2023-04-28T16:49:47.377Z,5.30
2023-04-28T16:52:14.465Z,4.95
2023-04-28T16:54:41.743Z,4.10
2023-04-28T16:57:08.839Z,4.68
2023-04-28T16:59:35.899Z,4.15
2023-04-28T17:02:07.002Z,4.85
2023-04-28T17:04:34.700Z,4.57
2023-04-28T17:07:04.631Z,5.15
2023-04-28T17:09:33.361Z,4.95
2023-04-28T17:12:00.982Z,7.05
2023-04-28T17:14:27.933Z,5.03
2023-04-28T17:16:54.973Z,4.63
2023-04-28T17:19:22.459Z,4.78
2023-04-28T17:21:50.104Z,6.50
2023-04-28T17:24:16.987Z,5.88
2023-04-28T17:26:43.917Z,4.13
2023-04-28T17:29:11.120Z,5.47
2023-04-28T17:31:39.296Z,7.60
2023-04-28T17:34:06.501Z,8.85
2023-04-28T17:36:33.741Z,5.95
2023-04-28T17:39:00.680Z,4.72
2023-04-28T17:41:27.574Z,6.53
2023-04-28T17:43:54.465Z,9.88
2023-04-28T17:46:22.090Z,7.00
2023-04-28T17:48:49.533Z,4.43
2023-04-28T17:51:16.416Z,7.20
2023-04-28T17:53:43.413Z,8.10
2023-04-28T17:56:10.953Z,5.50
2023-04-28T17:58:38.969Z,5.60
2023-04-28T18:01:07.704Z,9.48
2023-04-28T18:03:36.773Z,5.65
2023-04-28T18:06:06.157Z,7.38
2023-04-28T18:08:33.626Z,5.65
2023-04-28T18:11:00.814Z,5.70
2023-04-28T18:13:28.170Z,6.82
2023-04-28T18:15:55.147Z,6.95
2023-04-28T18:18:22.078Z,9.98
2023-04-28T18:20:49.000Z,6.43
2023-04-28T18:23:15.936Z,4.63
2023-04-28T18:25:43.800Z,5.80
2023-04-28T18:28:11.093Z,6.13
2023-04-28T18:30:56.733Z,6.55
2023-04-28T18:33:28.655Z,5.65
2023-04-28T18:36:07.318Z,8.57
2023-04-28T18:38:36.509Z,7.00
2023-04-28T18:41:13.796Z,7.25
2023-04-28T18:43:41.719Z,7.35
2023-04-28T18:46:08.810Z,6.57
2023-04-28T18:48:35.889Z,6.78
2023-04-28T18:51:03.389Z,5.30
2023-04-28T18:53:30.541Z,6.95
2023-04-28T18:55:58.792Z,8.65
2023-04-28T18:58:25.697Z,7.20
2023-04-28T19:00:53.160Z,8.90
2023-04-28T19:03:20.537Z,9.63
2023-04-28T19:05:48.618Z,5.32
2023-04-28T19:08:15.772Z,5.53
2023-04-28T19:10:42.677Z,8.30
2023-04-28T19:13:10.622Z,6.65
2023-04-28T19:15:37.865Z,8.07
2023-04-28T19:18:05.282Z,6.15
2023-04-28T19:20:32.433Z,7.72
2023-04-28T19:23:01.781Z,8.90
2023-04-28T19:25:30.774Z,6.07
2023-04-28T19:27:57.698Z,8.02
2023-04-28T19:30:24.621Z,6.88
2023-04-28T19:32:51.554Z,6.90
2023-04-28T19:35:21.146Z,8.38
2023-04-28T19:37:49.898Z,6.68
2023-04-28T19:40:16.920Z,6.75
2023-04-28T19:42:43.779Z,6.28
2023-04-28T19:45:10.966Z,5.68
2023-04-28T19:47:37.969Z,7.28
2023-04-28T19:50:05.400Z,6.28
2023-04-28T19:52:32.313Z,7.28
2023-04-28T19:55:00.705Z,7.15
2023-04-28T19:57:27.722Z,6.72
2023-04-28T19:59:54.576Z,6.35
2023-04-28T20:02:21.659Z,6.78
2023-04-28T20:04:49.756Z,6.47
2023-04-28T20:07:16.711Z,6.85
2023-04-28T20:09:44.946Z,6.50
2023-04-28T20:12:11.929Z,7.82
2023-04-28T20:14:38.805Z,7.38
2023-04-28T20:17:07.504Z,7.75
2023-04-28T20:19:35.152Z,6.97
2023-04-28T20:22:08.196Z,5.90
2023-04-28T20:24:36.273Z,6.47
2023-04-28T20:27:03.906Z,7.55
2023-04-28T20:29:34.388Z,4.25
2023-04-28T20:32:02.468Z,7.28
2023-04-28T20:34:29.552Z,9.85
2023-04-28T20:36:59.456Z,7.07
2023-04-28T20:39:26.803Z,8.00
2023-04-28T20:41:53.682Z,8.70
2023-04-28T20:44:20.703Z,8.10
2023-04-28T20:46:47.742Z,4.95
2023-04-28T20:49:15.271Z,8.93
2023-04-28T20:51:45.285Z,5.43
2023-04-28T20:54:12.931Z,7.47
2023-04-28T20:56:42.034Z,8.88
2023-04-28T20:59:08.996Z,6.50
2023-04-28T21:01:35.886Z,5.35
2023-04-28T21:04:03.080Z,8.07
2023-04-28T21:06:30.103Z,5.97
2023-04-28T21:08:57.115Z,6.60
2023-04-28T21:11:24.014Z,5.68
2023-04-28T21:13:50.906Z,7.25
2023-04-28T21:16:21.233Z,8.25
2023-04-28T21:18:49.667Z,6.47
2023-04-28T21:21:16.978Z,8.05
2023-04-28T21:23:44.423Z,5.85
2023-04-28T21:26:11.533Z,6.45
2023-04-28T21:28:40.045Z,5.95
2023-04-28T21:31:07.591Z,5.85
2023-04-28T21:33:34.500Z,8.60
2023-04-28T21:36:07.471Z,7.35
2023-04-28T21:38:39.174Z,6.68
2023-04-28T21:41:07.772Z,6.45
2023-04-28T21:43:35.078Z,8.32
2023-04-28T21:46:02.082Z,6.38
2023-04-28T21:48:29.126Z,9.75
2023-04-28T21:50:56.232Z,5.88
2023-04-28T21:53:23.489Z,5.35
2023-04-28T21:55:50.495Z,9.82
2023-04-28T21:58:17.380Z,8.18
2023-04-28T22:00:47.196Z,7.05
2023-04-28T22:03:15.510Z,7.53
2023-04-28T22:05:43.627Z,7.85
2023-04-28T22:08:10.868Z,7.32
2023-04-28T22:10:38.123Z,9.18
2023-04-28T22:13:06.115Z,6.13
2023-04-28T22:15:33.187Z,7.60
2023-04-28T22:18:00.306Z,5.28
2023-04-28T22:20:27.285Z,7.68
2023-04-28T22:22:54.321Z,6.70
2023-04-28T22:25:21.524Z,6.75
2023-04-28T22:27:48.706Z,6.20
2023-04-28T22:30:15.845Z,6.30
2023-04-28T22:32:47.114Z,6.88
2023-04-28T22:35:16.652Z,5.70
2023-04-28T22:37:43.939Z,8.75
2023-04-28T22:40:11.352Z,6.43
2023-04-28T22:42:42.460Z,4.32
2023-04-28T22:45:10.284Z,6.78
2023-04-28T22:47:38.875Z,8.48
2023-04-28T22:50:08.071Z,8.10
2023-04-28T22:52:35.706Z,7.60
2023-04-28T22:55:02.702Z,9.55
2023-04-28T22:57:29.575Z,6.57
2023-04-28T22:59:56.493Z,6.35
2023-04-28T23:02:23.685Z,7.47
2023-04-28T23:04:51.065Z,7.88
2023-04-28T23:07:18.232Z,7.50
2023-04-28T23:09:45.131Z,6.53
2023-04-28T23:12:11.976Z,5.00
2023-04-28T23:14:38.892Z,7.70
2023-04-28T23:17:06.028Z,6.18
2023-04-28T23:19:33.009Z,7.97
2023-04-28T23:21:59.926Z,8.43
2023-04-28T23:24:27.508Z,7.00
2023-04-28T23:26:54.524Z,6.82
2023-04-28T23:29:21.480Z,6.18
2023-04-28T23:31:52.645Z,7.35
2023-04-28T23:34:19.582Z,5.50
2023-04-28T23:36:46.489Z,7.97
2023-04-28T23:39:13.828Z,5.85
2023-04-28T23:41:41.175Z,8.20
2023-04-28T23:44:08.367Z,5.90
2023-04-28T23:46:35.583Z,9.65
2023-04-28T23:49:02.530Z,7.93
2023-04-28T23:51:30.130Z,5.28
2023-04-28T23:53:57.012Z,6.03
2023-04-28T23:56:23.858Z,5.13
2023-04-28T23:58:51.187Z,6.03
